Time;durP1;ratioP1;P1;durP2;ratioP2;P2;SDS_P1;SDS_P2;PMS_P1;PMS_P2;Temp;Humidity;BMP_temperature;BMP_pressure;BME280_temperature;BME280_humidity;BME280_pressure;Samples;Min_cycle;Max_cycle;Signal;HPM_P1;HPM_P2
2022/07/18 00:02:33;;;;;;;7.23;2.47;;;9.00;99.90;;;;;;4402501;28;655655;-66
2022/07/18 00:05:20;;;;;;;6.63;2.40;;;8.90;99.90;;;;;;4402208;28;655395;-66
2022/07/18 00:08:07;;;;;;;6.03;2.20;;;8.90;99.90;;;;;;4423749;28;655854;-66
2022/07/18 00:10:54;;;;;;;6.40;2.50;;;8.90;99.90;;;;;;4417216;28;655653;-66
2022/07/18 00:13:41;;;;;;;10.63;2.90;;;8.90;99.90;;;;;;4400918;28;655922;-66
2022/07/18 00:16:28;;;;;;;8.40;2.67;;;8.90;99.90;;;;;;4416671;28;657064;-66
2022/07/18 00:19:17;;;;;;;8.20;2.70;;;8.90;99.90;;;;;;4404903;28;655785;-66
2022/07/18 00:22:04;;;;;;;8.53;2.87;;;8.90;99.90;;;;;;4417585;28;656083;-66
2022/07/18 00:24:51;;;;;;;8.77;2.83;;;8.80;99.90;;;;;;4397564;28;656481;-66
2022/07/18 00:27:38;;;;;;;9.80;2.90;;;8.80;99.90;;;;;;4419526;28;656063;-66
2022/07/18 00:30:25;;;;;;;8.97;3.17;;;8.80;99.90;;;;;;4398275;28;655445;-66
2022/07/18 00:33:13;;;;;;;7.87;3.00;;;8.90;99.90;;;;;;4417859;28;656664;-66
2022/07/18 00:36:01;;;;;;;7.77;3.10;;;8.90;99.90;;;;;;4408065;28;658192;-66
2022/07/18 00:38:48;;;;;;;9.80;3.13;;;8.90;99.90;;;;;;4422634;28;656798;-66
2022/07/18 00:41:36;;;;;;;10.03;3.30;;;8.80;99.90;;;;;;4403705;28;655651;-66
2022/07/18 00:44:24;;;;;;;9.73;3.37;;;8.90;99.90;;;;;;4421745;28;657679;-66
2022/07/18 00:47:11;;;;;;;10.00;3.30;;;8.90;99.90;;;;;;4405553;28;655679;-66
2022/07/18 00:49:58;;;;;;;10.33;3.03;;;8.90;99.90;;;;;;4422208;28;657562;-66
2022/07/18 00:52:47;;;;;;;12.50;3.77;;;8.80;99.90;;;;;;4398339;28;656729;-66
2022/07/18 00:55:34;;;;;;;12.17;3.53;;;8.70;99.90;;;;;;4419791;28;656677;-66
2022/07/18 00:58:21;;;;;;;7.63;3.17;;;8.70;99.90;;;;;;4401341;28;656333;-66
2022/07/18 01:04:24;;;;;;;7.23;3.30;;;8.70;99.90;;;;;;4313856;28;655631;-66
2022/07/18 01:07:11;;;;;;;13.60;3.00;;;8.60;99.90;;;;;;4391264;28;655699;-66
2022/07/18 01:10:00;;;;;;;7.30;2.87;;;8.60;99.90;;;;;;4420055;28;657800;-66
2022/07/18 01:12:47;;;;;;;6.43;2.90;;;8.50;99.90;;;;;;4397880;28;656209;-66
2022/07/18 01:15:34;;;;;;;9.40;3.03;;;8.50;99.90;;;;;;4420280;28;655741;-66
2022/07/18 01:18:21;;;;;;;9.70;3.20;;;8.50;99.90;;;;;;4398011;28;655449;-66
2022/07/18 01:21:10;;;;;;;9.00;3.40;;;8.40;99.90;;;;;;4421964;28;656330;-66
2022/07/18 01:23:57;;;;;;;6.00;3.10;;;8.40;99.90;;;;;;4397490;28;656467;-66
2022/07/18 01:26:44;;;;;;;8.00;3.10;;;8.40;99.90;;;;;;4421394;28;655226;-66
2022/07/18 01:29:31;;;;;;;7.17;3.30;;;8.40;99.90;;;;;;4398020;28;655519;-66
2022/07/18 01:32:18;;;;;;;7.47;3.40;;;8.40;99.90;;;;;;4421992;28;656073;-66
2022/07/18 01:35:06;;;;;;;7.67;3.40;;;8.40;99.90;;;;;;4399009;28;656896;-66
2022/07/18 01:37:56;;;;;;;6.73;3.27;;;8.40;99.90;;;;;;4420067;28;656141;-66
2022/07/18 01:40:43;;;;;;;6.43;3.33;;;8.40;99.90;;;;;;4392186;28;656894;-66
2022/07/18 01:43:30;;;;;;;7.80;3.17;;;8.50;99.90;;;;;;4403124;28;655512;-66
2022/07/18 01:46:17;;;;;;;8.88;3.40;;;8.50;99.90;;;;;;4419811;28;655396;-66
2022/07/18 01:49:04;;;;;;;8.73;3.53;;;8.50;99.90;;;;;;4419474;28;656896;-66
2022/07/18 01:51:52;;;;;;;7.30;3.60;;;8.40;99.90;;;;;;4401995;28;657247;-66
2022/07/18 01:54:41;;;;;;;9.77;3.77;;;8.30;99.90;;;;;;4419856;28;656333;-66
2022/07/18 01:57:29;;;;;;;7.67;3.33;;;8.20;99.90;;;;;;4419727;28;655448;-66
2022/07/18 02:00:16;;;;;;;7.43;3.40;;;8.10;99.90;;;;;;4398452;28;655577;-66
2022/07/18 02:03:03;;;;;;;7.63;3.55;;;8.20;99.90;;;;;;4424171;28;656304;-66
2022/07/18 02:05:50;;;;;;;9.63;3.60;;;8.20;99.90;;;;;;4406084;28;655681;-66
2022/07/18 02:08:37;;;;;;;9.30;3.85;;;8.30;99.90;;;;;;4427623;28;656307;-66
2022/07/18 02:11:26;;;;;;;7.93;3.63;;;8.30;99.90;;;;;;4422101;28;655344;-66
2022/07/18 02:14:13;;;;;;;7.67;3.43;;;8.20;99.90;;;;;;4402164;28;655781;-66
2022/07/18 02:17:00;;;;;;;13.00;3.80;;;8.20;99.90;;;;;;4410190;28;658772;-66
2022/07/18 02:19:47;;;;;;;10.73;4.00;;;8.30;99.90;;;;;;4427340;28;656500;-66
2022/07/18 02:22:34;;;;;;;10.90;3.80;;;8.40;99.90;;;;;;4422994;28;656618;-66
2022/07/18 02:25:21;;;;;;;13.33;4.00;;;8.40;99.90;;;;;;4404400;28;656643;-66
2022/07/18 02:28:10;;;;;;;12.90;4.50;;;8.40;99.90;;;;;;4422098;28;657344;-66
2022/07/18 02:30:57;;;;;;;8.17;4.00;;;8.40;99.90;;;;;;4396953;28;657390;-66
2022/07/18 02:33:44;;;;;;;10.60;4.50;;;8.40;99.90;;;;;;4421582;28;655152;-66
2022/07/18 02:36:31;;;;;;;10.00;4.47;;;8.40;99.90;;;;;;4405754;28;656506;-66
2022/07/18 02:39:19;;;;;;;7.97;4.03;;;8.40;99.90;;;;;;4424523;28;657817;-66
2022/07/18 02:42:07;;;;;;;10.40;4.47;;;8.30;99.90;;;;;;4403194;28;657790;-66
2022/07/18 02:44:56;;;;;;;8.37;4.40;;;8.30;99.90;;;;;;4419243;28;657269;-67
2022/07/18 02:47:43;;;;;;;10.10;4.60;;;8.40;99.90;;;;;;4400441;28;656077;-67
2022/07/18 02:50:30;;;;;;;9.67;4.60;;;8.40;99.90;;;;;;4405612;28;656494;-67
2022/07/18 02:53:19;;;;;;;14.20;5.07;;;8.40;99.90;;;;;;4429020;28;656814;-66
2022/07/18 02:56:06;;;;;;;9.23;4.73;;;8.40;99.90;;;;;;4404271;28;656802;-66
2022/07/18 02:58:53;;;;;;;10.37;4.33;;;8.40;99.90;;;;;;4424075;28;656172;-67
2022/07/18 03:01:42;;;;;;;10.20;4.43;;;8.40;99.90;;;;;;4402959;28;656740;-67
2022/07/18 03:04:29;;;;;;;9.87;4.50;;;8.50;99.90;;;;;;4421436;28;656048;-67
2022/07/18 03:07:16;;;;;;;7.63;4.20;;;8.50;99.90;;;;;;4400002;28;655740;-66
2022/07/18 03:10:04;;;;;;;8.53;4.77;;;8.50;99.90;;;;;;4417318;28;656846;-67
2022/07/18 03:12:51;;;;;;;12.07;4.87;;;8.50;99.90;;;;;;4395487;28;655800;-67
2022/07/18 03:15:38;;;;;;;8.07;4.60;;;8.60;99.90;;;;;;4422544;28;657154;-67
2022/07/18 03:18:27;;;;;;;11.23;4.77;;;8.50;99.90;;;;;;4403655;28;655863;-67
2022/07/18 03:21:14;;;;;;;8.30;4.67;;;8.70;99.90;;;;;;4419876;28;656101;-67
2022/07/18 03:24:01;;;;;;;11.27;4.83;;;8.70;99.90;;;;;;4396533;28;655516;-67
2022/07/18 03:26:48;;;;;;;9.83;4.53;;;8.60;99.90;;;;;;4419114;28;657958;-67
2022/07/18 03:29:35;;;;;;;11.27;4.90;;;8.70;99.90;;;;;;4398889;28;655762;-67
2022/07/18 03:32:22;;;;;;;10.43;4.37;;;8.80;99.90;;;;;;4422089;28;656589;-67
2022/07/18 03:35:11;;;;;;;10.23;4.80;;;8.90;99.90;;;;;;4416362;28;657155;-67
2022/07/18 03:37:58;;;;;;;8.37;4.37;;;9.00;99.90;;;;;;4395561;28;657153;-67
2022/07/18 03:40:45;;;;;;;7.60;4.60;;;9.10;99.90;;;;;;4398590;28;655693;-67
2022/07/18 03:43:32;;;;;;;11.40;5.20;;;9.00;99.90;;;;;;4420307;28;656199;-67
2022/07/18 03:46:20;;;;;;;13.07;5.17;;;9.10;99.90;;;;;;4420472;28;656543;-67
2022/07/18 03:49:07;;;;;;;12.03;5.00;;;9.30;99.90;;;;;;4393900;28;657148;-67
2022/07/18 03:51:56;;;;;;;11.33;5.20;;;9.50;99.90;;;;;;4415372;28;656235;-67
2022/07/18 03:54:43;;;;;;;7.30;4.53;;;9.70;99.90;;;;;;4395297;28;657623;-68
2022/07/18 03:57:30;;;;;;;11.80;5.13;;;9.70;99.90;;;;;;4401447;28;655537;-67
2022/07/18 04:00:17;;;;;;;11.57;5.23;;;9.90;99.90;;;;;;4420081;28;656862;-67
2022/07/18 04:03:04;;;;;;;8.63;4.60;;;10.10;99.90;;;;;;4414596;28;656346;-67
2022/07/18 04:05:51;;;;;;;10.03;5.17;;;10.30;99.90;;;;;;4393283;28;657859;-67
2022/07/18 04:08:40;;;;;;;15.93;5.83;;;10.50;99.90;;;;;;4420320;28;657968;-67
2022/07/18 04:11:27;;;;;;;14.90;6.90;;;10.70;99.90;;;;;;4396917;28;658986;-67
2022/07/18 04:14:14;;;;;;;12.57;6.43;;;11.10;99.90;;;;;;4418151;28;657214;-67
2022/07/18 04:17:02;;;;;;;10.60;5.03;;;11.30;99.90;;;;;;4395718;28;657731;-67
2022/07/18 04:19:49;;;;;;;10.07;5.63;;;11.40;99.90;;;;;;4413717;28;657341;-67
2022/07/18 04:22:45;;;;;;;12.50;5.72;;;11.60;99.90;;;;;;4390843;28;658111;-67
2022/07/18 04:25:37;;;;;;;12.57;6.03;;;11.70;99.90;;;;;;4371744;28;657721;-67
2022/07/18 04:28:24;;;;;;;15.83;5.67;;;11.90;99.90;;;;;;4393294;28;657466;-67
2022/07/18 04:31:11;;;;;;;13.57;5.23;;;12.00;99.90;;;;;;4401771;28;658092;-67
2022/07/18 04:33:58;;;;;;;11.10;4.90;;;12.10;99.90;;;;;;4417825;28;657515;-67
2022/07/18 04:36:46;;;;;;;11.50;4.97;;;12.20;99.90;;;;;;4398051;28;657631;-68
2022/07/18 04:39:33;;;;;;;12.67;4.63;;;12.40;99.90;;;;;;4417995;28;657234;-67
2022/07/18 04:42:21;;;;;;;12.13;5.10;;;12.50;99.90;;;;;;4406077;28;657115;-68
2022/07/18 04:45:09;;;;;;;14.73;5.33;;;12.60;99.90;;;;;;4417490;28;657326;-66
2022/07/18 04:47:56;;;;;;;9.87;4.90;;;12.60;99.90;;;;;;4395356;28;657355;-67
2022/07/18 04:50:44;;;;;;;9.13;5.10;;;12.60;99.90;;;;;;4414445;28;656718;-67
2022/07/18 04:53:31;;;;;;;11.37;5.40;;;12.60;99.90;;;;;;4398187;28;656955;-68
2022/07/18 04:56:18;;;;;;;13.47;5.17;;;12.70;99.90;;;;;;4415648;28;659180;-67
2022/07/18 04:59:07;;;;;;;14.03;5.20;;;12.70;99.90;;;;;;4395530;28;657564;-67
2022/07/18 05:01:54;;;;;;;11.10;5.23;;;12.60;99.90;;;;;;4412503;28;657838;-67
2022/07/18 05:04:41;;;;;;;10.80;5.37;;;12.60;99.90;;;;;;4395602;28;657843;-67
2022/07/18 05:07:28;;;;;;;11.77;4.70;;;12.70;99.90;;;;;;4413848;28;658186;-67
2022/07/18 05:10:16;;;;;;;14.63;5.23;;;12.80;99.90;;;;;;4396907;28;657687;-67
2022/07/18 05:13:03;;;;;;;11.33;4.77;;;13.00;99.90;;;;;;4412949;28;659121;-67
2022/07/18 05:15:51;;;;;;;12.35;5.18;;;13.10;99.90;;;;;;4401818;28;657311;-67
2022/07/18 05:18:39;;;;;;;14.00;4.93;;;13.20;99.90;;;;;;4413396;28;657388;-67
2022/07/18 05:21:26;;;;;;;10.60;4.97;;;13.40;99.90;;;;;;4396980;28;657747;-67
2022/07/18 05:24:14;;;;;;;9.70;5.03;;;13.50;99.90;;;;;;4416249;28;658898;-67
2022/07/18 05:27:01;;;;;;;11.27;5.50;;;13.60;99.90;;;;;;4395355;28;656236;-67
2022/07/18 05:29:48;;;;;;;14.87;5.27;;;13.60;99.90;;;;;;4414321;28;658677;-67
2022/07/18 05:32:36;;;;;;;10.73;5.30;;;13.70;99.90;;;;;;4401330;28;657889;-68
2022/07/18 05:35:24;;;;;;;11.53;5.37;;;13.70;99.90;;;;;;4416182;28;657688;-67
2022/07/18 05:38:11;;;;;;;13.20;5.43;;;13.80;99.90;;;;;;4399753;28;658285;-67
2022/07/18 05:40:58;;;;;;;12.60;5.10;;;14.00;99.90;;;;;;4418697;28;658513;-68
2022/07/18 05:43:45;;;;;;;11.63;5.00;;;14.20;99.90;;;;;;4401825;28;657704;-68
2022/07/18 05:46:32;;;;;;;12.20;4.87;;;14.40;99.90;;;;;;4423927;28;657869;-67
2022/07/18 05:49:21;;;;;;;12.87;5.20;;;14.50;99.90;;;;;;4425275;28;657876;-67
2022/07/18 05:52:08;;;;;;;10.53;4.83;;;14.70;99.90;;;;;;4395237;28;658218;-67
2022/07/18 05:54:55;;;;;;;13.23;5.00;;;14.90;99.90;;;;;;4396939;28;657886;-68
2022/07/18 05:57:42;;;;;;;10.90;5.53;;;15.00;99.90;;;;;;4419426;28;658884;-67
2022/07/18 06:00:30;;;;;;;12.97;4.60;;;15.10;99.90;;;;;;4414611;28;657378;-68
2022/07/18 06:03:17;;;;;;;11.07;5.10;;;15.20;99.90;;;;;;4401943;28;658397;-67
2022/07/18 06:06:06;;;;;;;11.90;4.50;;;15.30;99.90;;;;;;4417021;28;657974;-68
2022/07/18 06:08:53;;;;;;;10.73;4.63;;;15.50;99.90;;;;;;4393715;28;658347;-67
2022/07/18 06:11:40;;;;;;;11.77;4.17;;;15.60;99.90;;;;;;4399267;28;657458;-67
2022/07/18 06:14:28;;;;;;;13.40;3.93;;;15.80;99.90;;;;;;4416834;28;657840;-67
2022/07/18 06:17:15;;;;;;;9.17;3.93;;;16.00;99.90;;;;;;4411511;28;658261;-67
2022/07/18 06:20:05;;;;;;;9.97;3.50;;;15.90;99.90;;;;;;4421252;28;657203;-68
2022/07/18 06:22:53;;;;;;;8.53;3.47;;;16.00;99.90;;;;;;4392644;28;658078;-67
2022/07/18 06:25:40;;;;;;;7.50;2.87;;;16.20;99.90;;;;;;4398417;28;656956;-67
2022/07/18 06:28:28;;;;;;;13.43;3.00;;;16.50;99.90;;;;;;4423772;28;657434;-68
2022/07/18 06:31:16;;;;;;;9.43;3.57;;;16.70;99.90;;;;;;4402999;28;657581;-67
2022/07/18 06:34:05;;;;;;;7.10;2.93;;;16.90;99.90;;;;;;4424953;28;656821;-68
2022/07/18 06:36:52;;;;;;;7.83;3.00;;;17.20;99.90;;;;;;4392812;28;656835;-68
2022/07/18 06:39:40;;;;;;;6.20;2.77;;;17.20;99.90;;;;;;4419893;28;656733;-68
2022/07/18 06:42:27;;;;;;;10.48;2.75;;;17.40;99.80;;;;;;4393547;28;657304;-67
2022/07/18 06:45:15;;;;;;;8.97;3.00;;;17.40;99.90;;;;;;4412320;28;657717;-66
2022/07/18 06:48:02;;;;;;;7.43;2.30;;;17.20;99.40;;;;;;4421368;28;656937;-67
2022/07/18 06:50:49;;;;;;;9.20;2.70;;;17.20;98.90;;;;;;4416322;28;656570;-67
2022/07/18 06:53:36;;;;;;;7.93;2.73;;;17.60;99.90;;;;;;4396872;28;656529;-68
2022/07/18 06:56:25;;;;;;;4.33;2.40;;;17.80;97.10;;;;;;4416766;28;656653;-68
2022/07/18 06:59:12;;;;;;;12.00;2.77;;;18.00;95.80;;;;;;4403523;28;657508;-68
2022/07/18 07:02:00;;;;;;;4.93;2.57;;;18.00;99.70;;;;;;4419570;28;657260;-68
2022/07/18 07:04:47;;;;;;;5.23;2.83;;;18.00;95.70;;;;;;4393768;28;656782;-68
2022/07/18 07:07:35;;;;;;;7.63;2.60;;;17.90;96.80;;;;;;4414627;28;656431;-67
2022/07/18 07:10:22;;;;;;;8.97;3.00;;;17.90;95.50;;;;;;4421544;28;657265;-67
2022/07/18 07:13:11;;;;;;;8.90;2.60;;;17.80;94.10;;;;;;4421384;28;657642;-67
2022/07/18 07:15:58;;;;;;;7.60;2.67;;;18.20;95.80;;;;;;4394793;28;657958;-67
2022/07/18 07:18:45;;;;;;;6.97;2.53;;;18.60;95.70;;;;;;4398540;28;656514;-67
2022/07/18 07:21:32;;;;;;;7.10;2.70;;;19.00;94.40;;;;;;4421390;28;657045;-67
2022/07/18 07:24:19;;;;;;;7.30;2.40;;;19.10;92.90;;;;;;4418394;28;656368;-67
2022/07/18 07:27:06;;;;;;;10.10;2.53;;;18.90;85.10;;;;;;4399290;28;656389;-67
2022/07/18 07:29:55;;;;;;;6.90;2.17;;;18.80;88.80;;;;;;4417701;28;657907;-67
2022/07/18 07:32:43;;;;;;;7.10;2.63;;;19.00;85.40;;;;;;4399122;28;656901;-67
2022/07/18 07:35:30;;;;;;;8.37;2.27;;;19.00;85.20;;;;;;4395070;28;656318;-68
2022/07/18 07:38:19;;;;;;;8.07;2.15;;;19.30;84.80;;;;;;4418496;28;656081;-67
2022/07/18 07:41:06;;;;;;;4.73;2.00;;;19.50;84.10;;;;;;4397196;28;656837;-68
2022/07/18 07:43:53;;;;;;;7.30;2.17;;;19.40;81.50;;;;;;4417557;28;656466;-68
2022/07/18 07:46:42;;;;;;;5.27;2.40;;;19.80;83.10;;;;;;4409509;28;656784;-67
2022/07/18 07:49:33;;;;;;;3.10;1.47;;;20.20;82.70;;;;;;4415736;28;656118;-68
2022/07/18 07:52:20;;;;;;;5.93;1.73;;;20.50;77.80;;;;;;4374260;28;657317;-67
2022/07/18 07:55:08;;;;;;;8.70;1.60;;;19.90;73.40;;;;;;4412519;28;658665;-69
2022/07/18 07:57:55;;;;;;;7.77;2.20;;;20.00;70.80;;;;;;4394934;28;656590;-67
2022/07/18 08:00:42;;;;;;;5.20;1.80;;;20.00;71.60;;;;;;4420362;28;656540;-67
2022/07/18 08:03:31;;;;;;;5.27;1.73;;;19.80;67.20;;;;;;4414738;28;656930;-70
2022/07/18 08:06:20;;;;;;;3.70;1.57;;;19.90;67.40;;;;;;4389897;28;657373;-66
2022/07/18 08:09:08;;;;;;;9.50;1.93;;;20.00;66.60;;;;;;4399495;28;656738;-67
2022/07/18 08:11:55;;;;;;;4.67;2.00;;;20.10;68.70;;;;;;4403740;28;657124;-68
2022/07/18 08:14:42;;;;;;;9.40;2.35;;;20.70;71.30;;;;;;4477355;28;657959;-63
2022/07/18 08:17:29;;;;;;;7.13;2.17;;;20.70;66.10;;;;;;4417221;28;656391;-64
2022/07/18 08:20:18;;;;;;;8.00;1.73;;;20.70;63.30;;;;;;4398685;28;656265;-63
2022/07/18 08:23:06;;;;;;;5.93;1.90;;;20.90;65.60;;;;;;4393625;28;656626;-64
2022/07/18 08:25:53;;;;;;;6.50;1.80;;;21.20;63.00;;;;;;4417979;28;656985;-64
2022/07/18 08:28:40;;;;;;;6.03;1.77;;;21.30;66.40;;;;;;4394914;28;656362;-65
2022/07/18 08:31:27;;;;;;;8.73;1.87;;;21.60;62.20;;;;;;4422392;28;657267;-64
2022/07/18 08:34:14;;;;;;;5.23;1.80;;;21.30;61.00;;;;;;4416016;28;656387;-63
2022/07/18 08:37:03;;;;;;;5.47;1.73;;;21.40;64.80;;;;;;4393673;28;656900;-63
2022/07/18 08:39:50;;;;;;;5.47;1.80;;;21.50;64.10;;;;;;4402778;28;656273;-65
2022/07/18 08:42:37;;;;;;;3.83;1.50;;;21.00;61.40;;;;;;4420129;28;656816;-63
2022/07/18 08:45:25;;;;;;;3.60;1.63;;;21.20;60.70;;;;;;4416308;28;656774;-63
2022/07/18 08:48:14;;;;;;;8.27;1.57;;;21.20;62.20;;;;;;4395504;28;659260;-63
2022/07/18 08:51:01;;;;;;;7.13;1.73;;;21.60;61.10;;;;;;4396653;28;656215;-64
2022/07/18 08:53:51;;;;;;;5.33;1.93;;;21.80;62.90;;;;;;4411430;28;656910;-64
2022/07/18 08:56:38;;;;;;;5.53;1.80;;;21.90;62.50;;;;;;4389562;28;656918;-64
2022/07/18 08:59:26;;;;;;;5.60;1.70;;;22.40;60.80;;;;;;4396856;28;656418;-64
2022/07/18 09:02:13;;;;;;;3.33;1.60;;;22.10;61.80;;;;;;4419845;28;657799;-63
2022/07/18 09:05:01;;;;;;;8.20;1.87;;;21.80;61.90;;;;;;4404379;28;657118;-65
2022/07/18 09:07:48;;;;;;;10.03;2.10;;;22.30;61.80;;;;;;4510722;28;657148;-63
2022/07/18 09:10:49;;;;;;;6.43;1.60;;;22.60;63.10;;;;;;4398564;28;658232;-64
2022/07/18 09:13:37;;;;;;;4.87;1.60;;;21.90;61.50;;;;;;4393778;28;656654;-64
2022/07/18 09:16:24;;;;;;;5.77;1.77;;;22.10;62.80;;;;;;4418429;28;656303;-63
2022/07/18 09:19:11;;;;;;;10.53;1.83;;;22.80;60.20;;;;;;4387574;28;656945;-63
2022/07/18 09:22:15;;;;;;;7.47;2.10;;;22.80;59.40;;;;;;4415181;28;658777;-64
2022/07/18 09:25:05;;;;;;;7.50;1.63;;;22.60;59.30;;;;;;4368318;28;657865;-63
2022/07/18 09:27:54;;;;;;;5.80;1.50;;;22.50;58.90;;;;;;4392419;28;657219;-63
2022/07/18 09:30:41;;;;;;;8.17;1.83;;;23.00;59.80;;;;;;4394158;28;656494;-63
2022/07/18 09:33:28;;;;;;;5.97;1.43;;;23.30;58.20;;;;;;4414434;28;657309;-63
2022/07/18 09:36:15;;;;;;;4.50;1.60;;;23.50;58.90;;;;;;4399601;28;656834;-64
2022/07/18 09:39:03;;;;;;;4.23;1.50;;;23.10;56.00;;;;;;4416341;28;658213;-64
2022/07/18 09:41:50;;;;;;;6.83;1.50;;;23.60;58.10;;;;;;4395435;28;656589;-64
2022/07/18 09:44:39;;;;;;;6.60;1.67;;;23.70;57.70;;;;;;4411832;28;658055;-64
2022/07/18 09:47:26;;;;;;;6.37;1.80;;;24.30;59.00;;;;;;4397178;28;657560;-64
2022/07/18 09:50:22;;;;;;;5.17;1.50;;;24.40;55.60;;;;;;4415049;28;657324;-63
2022/07/18 09:53:14;;;;;;;3.20;1.20;;;23.60;53.20;;;;;;4391599;28;656892;-63
2022/07/18 09:56:03;;;;;;;3.93;1.63;;;23.30;55.50;;;;;;4394509;28;656351;-64
2022/07/18 09:58:52;;;;;;;4.60;1.63;;;23.80;56.10;;;;;;4394934;28;656488;-64
2022/07/18 10:01:40;;;;;;;5.87;1.77;;;23.80;55.60;;;;;;4413664;28;657261;-63
2022/07/18 10:04:27;;;;;;;6.20;1.70;;;23.50;56.40;;;;;;4395560;28;657587;-63
2022/07/18 10:07:14;;;;;;;5.47;1.70;;;24.10;53.40;;;;;;4413065;28;656207;-63
2022/07/18 10:10:03;;;;;;;4.83;1.60;;;24.30;54.60;;;;;;4395026;28;656363;-64
2022/07/18 10:12:50;;;;;;;5.73;1.50;;;24.60;54.20;;;;;;4398594;28;656374;-65
2022/07/18 10:15:38;;;;;;;4.57;1.67;;;25.10;56.40;;;;;;4421155;28;658043;-63
2022/07/18 10:18:27;;;;;;;4.70;1.50;;;24.00;55.50;;;;;;4394762;28;656914;-65
2022/07/18 10:21:15;;;;;;;4.53;1.50;;;24.30;54.60;;;;;;4415004;28;658083;-64
2022/07/18 10:24:03;;;;;;;3.73;1.67;;;23.90;52.20;;;;;;4416915;28;657788;-63
2022/07/18 10:27:15;;;;;;;5.47;1.90;;;24.70;56.40;;;;;;4414731;28;657125;-65
2022/07/18 10:30:09;;;;;;;3.83;1.37;;;25.60;56.30;;;;;;4381072;28;657880;-63
2022/07/18 10:32:56;;;;;;;7.23;1.60;;;24.30;51.40;;;;;;4406514;28;658688;-63
2022/07/18 10:36:01;;;;;;;4.30;1.60;;;23.80;54.30;;;;;;4427059;28;657104;-64
2022/07/18 10:39:05;;;;;;;6.50;1.90;;;23.70;53.40;;;;;;4397997;28;657032;-63
2022/07/18 10:42:18;;;;;;;4.60;1.50;;;24.50;55.70;;;;;;4398057;28;656631;-64
2022/07/18 10:45:19;;;;;;;5.73;1.37;;;25.30;54.00;;;;;;4378432;28;657080;-64
2022/07/18 10:48:40;;;;;;;5.50;1.63;;;25.70;54.20;;;;;;4373338;28;656875;-64
2022/07/18 10:51:33;;;;;;;3.27;1.50;;;25.00;51.80;;;;;;4371287;28;657304;-63
2022/07/18 10:54:20;;;;;;;7.47;1.73;;;24.20;55.50;;;;;;4386650;28;657284;-64
2022/07/18 10:57:11;;;;;;;4.10;1.10;;;23.80;54.30;;;;;;4423471;28;656768;-63
2022/07/18 11:00:03;;;;;;;7.23;1.80;;;23.80;54.10;;;;;;4395322;28;658016;-63
2022/07/18 11:03:04;;;;;;;2.73;1.17;;;24.50;54.50;;;;;;4378106;28;656728;-63
2022/07/18 11:05:52;;;;;;;6.83;1.80;;;24.90;52.70;;;;;;4373963;28;657466;-63
2022/07/18 11:08:40;;;;;;;4.27;1.60;;;24.40;54.70;;;;;;4413844;28;657372;-63
2022/07/18 11:11:27;;;;;;;4.03;1.47;;;23.80;53.30;;;;;;4396677;28;657514;-64
2022/07/18 11:14:48;;;;;;;4.00;1.33;;;24.40;54.10;;;;;;4414997;28;656986;-64
2022/07/18 11:17:58;;;;;;;5.47;1.37;;;24.60;56.60;;;;;;4372053;28;656820;-63
2022/07/18 11:20:46;;;;;;;8.13;1.67;;;24.90;54.20;;;;;;4373552;28;656157;-65
2022/07/18 11:23:33;;;;;;;5.33;1.60;;;24.90;53.50;;;;;;4418591;28;657257;-64
2022/07/18 11:26:22;;;;;;;4.57;1.85;;;25.10;52.80;;;;;;4401404;28;656355;-64
2022/07/18 11:29:10;;;;;;;5.82;1.90;;;25.20;52.50;;;;;;4414294;28;656478;-64
2022/07/18 11:31:59;;;;;;;5.85;1.73;;;24.90;53.90;;;;;;4402133;28;657206;-64
2022/07/18 11:34:50;;;;;;;5.03;1.48;;;25.30;53.10;;;;;;4397283;28;656170;-65
2022/07/18 11:37:37;;;;;;;6.75;1.90;;;26.30;53.50;;;;;;4400377;28;657229;-63
2022/07/18 11:40:24;;;;;;;5.43;1.55;;;25.10;51.70;;;;;;4417653;28;656829;-64
2022/07/18 11:43:13;;;;;;;11.07;1.70;;;24.80;54.30;;;;;;4394837;28;656934;-64
2022/07/18 11:46:01;;;;;;;4.03;1.73;;;24.70;54.90;;;;;;4406647;28;657402;-64
2022/07/18 11:48:50;;;;;;;4.47;1.38;;;25.70;52.70;;;;;;4419839;28;656773;-63
2022/07/18 11:51:39;;;;;;;6.25;1.50;;;26.30;53.80;;;;;;4398649;28;658128;-63
2022/07/18 11:54:28;;;;;;;4.68;1.67;;;25.30;53.10;;;;;;4398773;28;656320;-63
2022/07/18 11:57:16;;;;;;;6.75;1.60;;;25.20;53.30;;;;;;4395531;28;656719;-65
2022/07/18 12:00:17;;;;;;;3.72;1.70;;;25.60;53.10;;;;;;4417038;28;656932;-64
2022/07/18 12:03:06;;;;;;;4.90;1.48;;;25.90;50.90;;;;;;4395921;28;656327;-64
2022/07/18 12:05:53;;;;;;;3.40;1.38;;;24.90;51.20;;;;;;4394424;28;657627;-63
2022/07/18 12:08:41;;;;;;;6.85;1.40;;;25.70;51.60;;;;;;4395985;28;657010;-64
2022/07/18 12:11:29;;;;;;;5.38;1.67;;;25.90;51.90;;;;;;4419534;28;657049;-64
2022/07/18 12:14:17;;;;;;;5.55;1.50;;;26.50;51.40;;;;;;4393447;28;657456;-63
2022/07/18 12:17:06;;;;;;;5.55;1.77;;;25.50;52.60;;;;;;4412112;28;656622;-63
2022/07/18 12:19:53;;;;;;;5.95;1.67;;;25.30;53.00;;;;;;4389751;28;657482;-65
2022/07/18 12:23:10;;;;;;;7.10;1.42;;;25.10;52.60;;;;;;4404927;28;656744;-65
2022/07/18 12:25:58;;;;;;;5.32;1.40;;;25.70;54.20;;;;;;4375465;28;657427;-64
2022/07/18 12:28:45;;;;;;;2.08;1.08;;;25.20;54.10;;;;;;4407076;28;657230;-65
2022/07/18 12:31:41;;;;;;;3.17;1.50;;;26.00;51.00;;;;;;4424755;28;656787;-64
2022/07/18 12:34:30;;;;;;;7.53;1.50;;;25.80;52.50;;;;;;4390648;28;656799;-65
2022/07/18 12:37:23;;;;;;;2.83;1.40;;;25.50;52.10;;;;;;4400809;28;658021;-64
2022/07/18 12:40:12;;;;;;;6.55;1.77;;;26.50;51.40;;;;;;4375417;28;657030;-66
2022/07/18 12:43:07;;;;;;;3.70;1.50;;;27.10;51.90;;;;;;4413261;28;657471;-64
2022/07/18 12:45:54;;;;;;;5.38;1.80;;;27.10;48.20;;;;;;4395623;28;656626;-64
2022/07/18 12:48:42;;;;;;;3.75;1.40;;;27.10;50.20;;;;;;4388982;28;656406;-64
2022/07/18 12:51:32;;;;;;;2.53;1.30;;;27.50;49.00;;;;;;4414078;28;656993;-64
2022/07/18 12:54:19;;;;;;;4.20;1.48;;;27.50;47.80;;;;;;4388565;28;656963;-64
2022/07/18 12:57:06;;;;;;;5.20;1.60;;;26.90;47.60;;;;;;4395379;28;658078;-64
2022/07/18 12:59:54;;;;;;;5.45;1.40;;;26.40;49.70;;;;;;4413498;28;656342;-63
2022/07/18 13:02:42;;;;;;;4.82;1.45;;;26.20;50.50;;;;;;4395680;28;656617;-64
2022/07/18 13:05:30;;;;;;;1.75;1.40;;;26.00;50.00;;;;;;4416684;28;656608;-64
2022/07/18 13:08:19;;;;;;;4.00;1.38;;;26.40;51.00;;;;;;4415438;28;658182;-64
2022/07/18 13:11:06;;;;;;;5.38;1.65;;;26.60;48.50;;;;;;4398355;28;656496;-64
2022/07/18 13:13:53;;;;;;;3.47;1.40;;;26.60;50.60;;;;;;4411531;28;657678;-63
2022/07/18 13:16:43;;;;;;;5.07;1.52;;;27.10;49.50;;;;;;4392338;28;656571;-64
2022/07/18 13:19:30;;;;;;;5.95;1.63;;;26.90;49.60;;;;;;4400551;28;656834;-65
2022/07/18 13:22:17;;;;;;;5.93;1.60;;;26.80;47.00;;;;;;4417459;28;657293;-64
2022/07/18 13:25:07;;;;;;;3.95;1.70;;;27.60;54.60;;;;;;4413570;28;656414;-64
2022/07/18 13:27:54;;;;;;;7.80;1.83;;;28.20;50.00;;;;;;4385611;28;656759;-64
2022/07/18 13:30:41;;;;;;;4.70;1.60;;;29.00;50.80;;;;;;4400291;28;657064;-64
2022/07/18 13:33:28;;;;;;;6.10;1.58;;;29.20;48.30;;;;;;4416118;28;657011;-63
2022/07/18 13:36:15;;;;;;;7.43;1.80;;;29.10;47.90;;;;;;4391806;28;656429;-64
2022/07/18 13:39:02;;;;;;;3.65;1.52;;;27.00;45.90;;;;;;4414156;28;657650;-63
2022/07/18 13:41:51;;;;;;;4.07;1.73;;;27.20;49.60;;;;;;4412164;28;656447;-63
2022/07/18 13:44:38;;;;;;;4.20;1.40;;;27.30;48.70;;;;;;4392597;28;657580;-63
2022/07/18 13:47:25;;;;;;;4.60;1.50;;;27.30;49.10;;;;;;4390574;28;656283;-64
2022/07/18 13:50:12;;;;;;;5.57;1.70;;;26.40;49.90;;;;;;4416159;28;657501;-64
2022/07/18 13:52:59;;;;;;;6.35;1.45;;;26.00;51.40;;;;;;4411881;28;656365;-63
2022/07/18 13:55:46;;;;;;;3.92;1.60;;;25.40;51.50;;;;;;4393008;28;657517;-63
2022/07/18 13:58:35;;;;;;;5.30;1.52;;;25.90;52.40;;;;;;4414878;28;657049;-63
2022/07/18 14:01:22;;;;;;;2.67;1.23;;;26.70;50.90;;;;;;4392477;28;657392;-63
2022/07/18 14:04:09;;;;;;;3.72;1.08;;;27.00;50.00;;;;;;4419688;28;657076;-63
2022/07/18 14:06:56;;;;;;;3.65;1.35;;;27.30;47.60;;;;;;4393235;28;657034;-63
2022/07/18 14:09:44;;;;;;;4.07;1.40;;;27.00;47.50;;;;;;4416260;28;656540;-63
2022/07/18 14:12:31;;;;;;;2.58;1.42;;;26.80;49.40;;;;;;4395529;28;657270;-64
2022/07/18 14:15:19;;;;;;;5.40;1.50;;;26.80;48.50;;;;;;4416460;28;657425;-63
2022/07/18 14:18:06;;;;;;;2.88;1.27;;;25.80;51.10;;;;;;4384104;28;656431;-63
2022/07/18 14:20:53;;;;;;;6.13;1.38;;;26.10;50.40;;;;;;4418843;28;657220;-63
2022/07/18 14:23:40;;;;;;;5.53;1.70;;;25.90;52.40;;;;;;4403771;28;657012;-63
2022/07/18 14:26:27;;;;;;;6.97;1.52;;;25.40;52.00;;;;;;4417546;28;657965;-64
2022/07/18 14:29:15;;;;;;;3.58;1.40;;;25.60;50.70;;;;;;4409179;28;658004;-64
2022/07/18 14:32:04;;;;;;;5.50;1.90;;;26.10;51.10;;;;;;4426668;28;656511;-63